Time;durP1;ratioP1;P1;durP2;ratioP2;P2;SDS_P1;SDS_P2;PMS_P1;PMS_P2;Temp;Humidity;BMP_temperature;BMP_pressure;BME280_temperature;BME280_humidity;BME280_pressure;Samples;Min_cycle;Max_cycle;Signal;HPM_P1;HPM_P2
2022/06/17 00:02:13;;;;;;;1.92;1.48;;;;;;;;;;5054954;28;20275;-76
2022/06/17 00:04:40;;;;;;;1.50;1.27;;;;;;;;;;5055227;28;20033;-75
2022/06/17 00:07:15;;;;;;;1.73;1.13;;;;;;;;;;5037113;28;20025;-76
2022/06/17 00:09:42;;;;;;;2.10;1.20;;;;;;;;;;5036872;28;20070;-75
2022/06/17 00:12:12;;;;;;;1.65;1.10;;;;;;;;;;5054532;28;20455;-75
2022/06/17 00:17:23;;;;;;;7.22;1.95;;;;;;;;;;5054926;28;20108;-75
2022/06/17 00:19:50;;;;;;;3.65;1.30;;;;;;;;;;5054973;28;20025;-74
2022/06/17 00:22:16;;;;;;;2.67;1.13;;;;;;;;;;5037658;28;20025;-75
2022/06/17 00:24:43;;;;;;;1.27;0.90;;;;;;;;;;5054617;28;20455;-75
2022/06/17 00:27:10;;;;;;;3.30;1.83;;;;;;;;;;5054892;28;20422;-75
2022/06/17 00:29:37;;;;;;;3.65;1.40;;;;;;;;;;5020282;28;20139;-75
2022/06/17 00:32:03;;;;;;;2.22;1.70;;;;;;;;;;5054251;28;20025;-76
2022/06/17 00:34:29;;;;;;;2.40;0.98;;;;;;;;;;5054589;28;20021;-76
2022/06/17 00:36:59;;;;;;;1.55;1.20;;;;;;;;;;5036476;28;20112;-76
2022/06/17 00:39:28;;;;;;;2.17;1.10;;;;;;;;;;5036858;28;20469;-75
2022/06/17 00:41:57;;;;;;;1.50;1.15;;;;;;;;;;5019893;28;20037;-77
2022/06/17 00:44:36;;;;;;;1.30;1.20;;;;;;;;;;5036117;28;20140;-75
2022/06/17 00:47:02;;;;;;;2.58;1.60;;;;;;;;;;5036313;28;20078;-75
2022/06/17 00:49:51;;;;;;;3.53;1.38;;;;;;;;;;5054496;28;20040;-75
2022/06/17 00:52:23;;;;;;;3.58;1.60;;;;;;;;;;5053745;28;20031;-76
2022/06/17 00:54:55;;;;;;;1.27;0.90;;;;;;;;;;5036208;28;20072;-74
2022/06/17 00:57:33;;;;;;;1.60;1.10;;;;;;;;;;5036491;28;20021;-74
2022/06/17 01:00:11;;;;;;;0.90;0.90;;;;;;;;;;5054145;28;20079;-76
2022/06/17 01:02:40;;;;;;;1.77;1.30;;;;;;;;;;5054145;28;20474;-76
2022/06/17 01:05:07;;;;;;;1.60;1.17;;;;;;;;;;5019488;28;20412;-76
2022/06/17 01:07:36;;;;;;;2.00;1.20;;;;;;;;;;5053839;28;20032;-75
2022/06/17 01:10:11;;;;;;;1.33;1.15;;;;;;;;;;5035249;28;20159;-76
2022/06/17 01:12:39;;;;;;;2.67;1.27;;;;;;;;;;5054041;28;20021;-74
2022/06/17 01:15:14;;;;;;;3.92;1.50;;;;;;;;;;5035864;28;20470;-76
2022/06/17 01:17:40;;;;;;;1.20;1.10;;;;;;;;;;5053949;28;20025;-75
2022/06/17 01:20:11;;;;;;;3.20;1.48;;;;;;;;;;5035824;28;20547;-75
2022/06/17 01:22:54;;;;;;;1.45;1.10;;;;;;;;;;5053953;28;20021;-74
2022/06/17 01:25:30;;;;;;;1.35;1.17;;;;;;;;;;5053593;28;20033;-75
2022/06/17 01:27:58;;;;;;;1.35;1.25;;;;;;;;;;5053924;28;20052;-74
2022/06/17 01:30:26;;;;;;;2.10;1.30;;;;;;;;;;5054081;28;20021;-75
2022/06/17 01:32:54;;;;;;;1.92;1.40;;;;;;;;;;5036302;28;20040;-75
2022/06/17 01:35:29;;;;;;;3.63;1.50;;;;;;;;;;5054022;28;20028;-76
2022/06/17 01:37:56;;;;;;;1.80;1.40;;;;;;;;;;5053475;28;20017;-75
2022/06/17 01:40:22;;;;;;;1.90;1.77;;;;;;;;;;5035641;28;20040;-76
2022/06/17 01:42:48;;;;;;;1.77;1.35;;;;;;;;;;5035268;28;20029;-76
2022/06/17 01:45:16;;;;;;;1.50;1.40;;;;;;;;;;5035376;28;20025;-74
2022/06/17 01:47:44;;;;;;;2.45;1.23;;;;;;;;;;5019046;28;20029;-75
2022/06/17 01:50:20;;;;;;;3.63;1.80;;;;;;;;;;5035547;28;20043;-74
2022/06/17 01:52:51;;;;;;;1.50;1.40;;;;;;;;;;5053229;28;20032;-76
2022/06/17 01:55:29;;;;;;;2.30;1.52;;;;;;;;;;5035407;28;20028;-74
2022/06/17 01:58:13;;;;;;;1.98;1.50;;;;;;;;;;5035305;28;20051;-76
2022/06/17 02:00:47;;;;;;;2.15;1.60;;;;;;;;;;5053536;28;20126;-76
2022/06/17 02:03:23;;;;;;;5.00;1.80;;;;;;;;;;5053269;28;20083;-75
2022/06/17 02:05:51;;;;;;;1.38;1.27;;;;;;;;;;5053504;28;20025;-76
2022/06/17 02:08:18;;;;;;;2.47;1.48;;;;;;;;;;5053316;28;20068;-76
2022/06/17 02:10:45;;;;;;;2.00;1.60;;;;;;;;;;5035479;28;20110;-74
2022/06/17 02:13:19;;;;;;;1.45;1.33;;;;;;;;;;5018632;28;20434;-75
2022/06/17 02:15:45;;;;;;;2.47;1.55;;;;;;;;;;5053292;28;20017;-75
2022/06/17 02:18:21;;;;;;;3.05;1.67;;;;;;;;;;5053035;28;20424;-75
2022/06/17 02:20:58;;;;;;;1.83;1.27;;;;;;;;;;5053653;28;20029;-76
2022/06/17 02:23:26;;;;;;;2.33;1.77;;;;;;;;;;5057041;28;20032;-74
2022/06/17 02:25:52;;;;;;;1.63;1.52;;;;;;;;;;5038929;28;20040;-74
2022/06/17 02:28:18;;;;;;;1.70;1.45;;;;;;;;;;5056870;28;20029;-74
2022/06/17 02:30:45;;;;;;;1.40;1.30;;;;;;;;;;5038674;28;20124;-75
2022/06/17 02:33:19;;;;;;;1.42;1.33;;;;;;;;;;5056949;28;20021;-75
2022/06/17 02:35:49;;;;;;;2.75;1.45;;;;;;;;;;5056940;28;20025;-74
2022/06/17 02:38:18;;;;;;;1.30;1.20;;;;;;;;;;5057011;28;20504;-75
2022/06/17 02:40:45;;;;;;;3.00;1.90;;;;;;;;;;5039560;28;20029;-75
2022/06/17 02:43:14;;;;;;;2.47;1.40;;;;;;;;;;5022838;28;20049;-74
2022/06/17 02:45:49;;;;;;;2.22;1.10;;;;;;;;;;5058089;28;20028;-76
2022/06/17 02:48:25;;;;;;;2.38;1.15;;;;;;;;;;5056845;28;20024;-75
2022/06/17 02:50:52;;;;;;;2.47;1.33;;;;;;;;;;5056405;28;20028;-73
2022/06/17 02:53:20;;;;;;;3.05;1.10;;;;;;;;;;5056393;28;20021;-76
2022/06/17 02:55:47;;;;;;;1.75;0.85;;;;;;;;;;5021631;28;20081;-75
2022/06/17 02:58:23;;;;;;;3.03;0.95;;;;;;;;;;5038581;28;20053;-76
2022/06/17 03:00:50;;;;;;;1.95;1.25;;;;;;;;;;5056564;28;20017;-76
2022/06/17 03:03:19;;;;;;;1.23;1.13;;;;;;;;;;5056127;28;20025;-74
2022/06/17 03:06:05;;;;;;;3.97;1.55;;;;;;;;;;5038194;28;20039;-74
2022/06/17 03:08:41;;;;;;;1.40;1.30;;;;;;;;;;5036663;28;20059;-76
2022/06/17 03:11:07;;;;;;;3.72;1.10;;;;;;;;;;5038133;28;20032;-75
2022/06/17 03:13:50;;;;;;;1.30;1.20;;;;;;;;;;5037165;28;20037;-76
2022/06/17 03:16:16;;;;;;;1.73;1.50;;;;;;;;;;5056179;28;20028;-76
2022/06/17 03:18:44;;;;;;;2.13;1.30;;;;;;;;;;5038723;28;20047;-75
2022/06/17 03:21:11;;;;;;;1.58;1.30;;;;;;;;;;5022983;28;20116;-77
2022/06/17 03:23:40;;;;;;;2.60;1.40;;;;;;;;;;5038446;28;20025;-77
2022/06/17 03:26:16;;;;;;;2.38;1.38;;;;;;;;;;5038126;28;20021;-75
2022/06/17 03:28:58;;;;;;;1.88;1.15;;;;;;;;;;5021304;28;20060;-75
2022/06/17 03:31:33;;;;;;;2.55;1.27;;;;;;;;;;5055664;28;20032;-75
2022/06/17 03:34:01;;;;;;;2.63;1.85;;;;;;;;;;5037080;28;20025;-75
2022/06/17 03:36:46;;;;;;;2.20;1.50;;;;;;;;;;5038064;28;20107;-76
2022/06/17 03:39:22;;;;;;;4.80;1.40;;;;;;;;;;5055896;28;20025;-74
2022/06/17 03:41:58;;;;;;;1.95;1.23;;;;;;;;;;5038006;28;20021;-74
2022/06/17 03:44:28;;;;;;;2.13;1.15;;;;;;;;;;5038227;28;20457;-75
2022/06/17 03:47:24;;;;;;;1.65;1.20;;;;;;;;;;5038185;28;20047;-75
2022/06/17 03:49:52;;;;;;;1.33;1.23;;;;;;;;;;5034251;28;20033;-76
2022/06/17 03:52:17;;;;;;;2.05;1.20;;;;;;;;;;5037560;28;20024;-75
2022/06/17 03:54:43;;;;;;;1.20;1.10;;;;;;;;;;5055617;28;20386;-76
2022/06/17 03:57:11;;;;;;;1.88;1.05;;;;;;;;;;5055582;28;20264;-75
2022/06/17 03:59:47;;;;;;;3.40;1.80;;;;;;;;;;5037273;28;20478;-76
2022/06/17 04:02:20;;;;;;;1.73;1.27;;;;;;;;;;5037068;28;20029;-74
2022/06/17 04:04:50;;;;;;;2.38;1.10;;;;;;;;;;5055175;28;20063;-74
2022/06/17 04:07:16;;;;;;;1.70;1.15;;;;;;;;;;5054930;28;20025;-75
2022/06/17 04:09:43;;;;;;;1.55;1.35;;;;;;;;;;5055165;28;20025;-75
2022/06/17 04:12:11;;;;;;;2.72;1.20;;;;;;;;;;5020460;28;20024;-76
2022/06/17 04:14:44;;;;;;;3.50;1.20;;;;;;;;;;5054752;28;20028;-74
2022/06/17 04:17:16;;;;;;;3.38;1.10;;;;;;;;;;5036977;28;20017;-75
2022/06/17 04:19:42;;;;;;;1.98;1.10;;;;;;;;;;5036823;28;20025;-75
2022/06/17 04:22:19;;;;;;;1.10;1.00;;;;;;;;;;5036841;28;20032;-75
2022/06/17 04:24:48;;;;;;;1.67;1.10;;;;;;;;;;5054759;28;20029;-75
2022/06/17 04:27:16;;;;;;;2.20;0.80;;;;;;;;;;5036606;28;20063;-76
2022/06/17 04:29:47;;;;;;;0.88;0.88;;;;;;;;;;5036793;28;20063;-76
2022/06/17 04:32:12;;;;;;;0.88;0.80;;;;;;;;;;5036426;28;20462;-75
2022/06/17 04:34:37;;;;;;;5.23;1.90;;;;;;;;;;5054278;28;20075;-76
2022/06/17 04:37:05;;;;;;;3.00;1.10;;;;;;;;;;5036395;28;20260;-76
2022/06/17 04:39:30;;;;;;;4.10;1.60;;;;;;;;;;5036623;28;20112;-76
2022/06/17 04:41:59;;;;;;;0.70;0.60;;;;;;;;;;5054272;28;20103;-76
2022/06/17 04:44:25;;;;;;;1.92;1.50;;;;;;;;;;5036279;28;20305;-76
2022/06/17 04:46:58;;;;;;;4.10;1.35;;;;;;;;;;5036787;28;20033;-76
2022/06/17 04:49:25;;;;;;;0.80;0.80;;;;;;;;;;5036233;28;20061;-75
2022/06/17 04:51:58;;;;;;;2.05;1.00;;;;;;;;;;5036320;28;20029;-76
2022/06/17 04:54:25;;;;;;;3.78;1.00;;;;;;;;;;5053990;28;20074;-75
2022/06/17 04:56:59;;;;;;;1.30;0.90;;;;;;;;;;5019779;28;20060;-76
2022/06/17 04:59:44;;;;;;;2.53;1.30;;;;;;;;;;5054278;28;20025;-77
2022/06/17 05:02:20;;;;;;;1.00;0.90;;;;;;;;;;5036639;28;20029;-74
2022/06/17 05:04:47;;;;;;;3.72;1.90;;;;;;;;;;5035753;28;20060;-76
2022/06/17 05:07:15;;;;;;;3.33;1.63;;;;;;;;;;5053738;28;20481;-74
2022/06/17 05:09:43;;;;;;;1.10;0.88;;;;;;;;;;5053956;28;20059;-75
2022/06/17 05:12:16;;;;;;;6.03;1.77;;;;;;;;;;5053638;28;20036;-76
2022/06/17 05:15:12;;;;;;;4.88;1.08;;;;;;;;;;5035543;28;20060;-76
2022/06/17 05:17:38;;;;;;;1.25;0.70;;;;;;;;;;5032067;28;20478;-77
2022/06/17 05:20:07;;;;;;;3.60;1.48;;;;;;;;;;5053585;28;20044;-76
2022/06/17 05:22:36;;;;;;;1.83;1.33;;;;;;;;;;5019019;28;20032;-76
2022/06/17 05:25:05;;;;;;;1.67;0.93;;;;;;;;;;5035340;28;20033;-77
2022/06/17 05:27:31;;;;;;;0.88;0.82;;;;;;;;;;5034848;28;20062;-75
2022/06/17 05:29:58;;;;;;;8.85;1.20;;;;;;;;;;5052634;28;20033;-76
2022/06/17 05:32:24;;;;;;;1.20;0.82;;;;;;;;;;5053287;28;20362;-76
2022/06/17 05:34:50;;;;;;;3.22;1.10;;;;;;;;;;5035249;28;20027;-74
2022/06/17 05:37:15;;;;;;;2.80;0.80;;;;;;;;;;5053841;28;20362;-77
2022/06/17 05:39:42;;;;;;;1.85;0.90;;;;;;;;;;5061287;28;20465;-76
2022/06/17 05:42:09;;;;;;;2.00;1.13;;;;;;;;;;5057635;28;20063;-76
2022/06/17 05:44:35;;;;;;;0.95;0.68;;;;;;;;;;5018826;28;20068;-78
2022/06/17 05:47:00;;;;;;;2.83;0.95;;;;;;;;;;5036306;28;20033;-80
2022/06/17 05:49:25;;;;;;;2.53;1.07;;;;;;;;;;5019239;28;20060;-81
2022/06/17 05:51:51;;;;;;;0.98;0.82;;;;;;;;;;5053560;28;20363;-84
2022/06/17 05:54:16;;;;;;;0.68;0.63;;;;;;;;;;5053671;28;20409;-80
2022/06/17 05:56:42;;;;;;;2.30;0.70;;;;;;;;;;5055741;28;20048;-79
2022/06/17 05:59:10;;;;;;;2.47;0.73;;;;;;;;;;5057577;28;20492;-81
2022/06/17 06:01:36;;;;;;;0.52;0.50;;;;;;;;;;5057748;28;20020;-85
2022/06/17 06:04:01;;;;;;;1.05;0.73;;;;;;;;;;5023344;28;20024;-82
2022/06/17 06:06:27;;;;;;;2.00;0.60;;;;;;;;;;5057533;28;20074;-82
2022/06/17 06:08:53;;;;;;;1.17;0.70;;;;;;;;;;5056828;28;20025;-82
2022/06/17 06:11:18;;;;;;;0.70;0.55;;;;;;;;;;5057397;28;20048;-82
2022/06/17 06:13:45;;;;;;;4.38;0.55;;;;;;;;;;5038875;28;20045;-80
2022/06/17 06:16:13;;;;;;;1.05;0.75;;;;;;;;;;5056840;28;20019;-82
2022/06/17 06:18:45;;;;;;;2.70;0.63;;;;;;;;;;5038652;28;20462;-80
2022/06/17 06:21:10;;;;;;;1.27;0.50;;;;;;;;;;5057047;28;20021;-82
2022/06/17 06:23:36;;;;;;;1.08;0.68;;;;;;;;;;5039094;28;20390;-81
2022/06/17 06:26:04;;;;;;;6.32;1.20;;;;;;;;;;5039142;28;20025;-83
2022/06/17 06:28:30;;;;;;;2.05;0.65;;;;;;;;;;5022775;28;20377;-81
2022/06/17 06:31:03;;;;;;;0.98;0.88;;;;;;;;;;5039435;28;20020;-80
2022/06/17 06:33:29;;;;;;;1.98;0.52;;;;;;;;;;5039421;28;20031;-83
2022/06/17 06:35:55;;;;;;;1.23;0.67;;;;;;;;;;5057175;28;20020;-85
2022/06/17 06:38:21;;;;;;;1.00;0.77;;;;;;;;;;5057403;28;20334;-83
2022/06/17 06:40:47;;;;;;;0.93;0.40;;;;;;;;;;5057120;28;20020;-85
2022/06/17 06:43:16;;;;;;;1.58;1.20;;;;;;;;;;5036918;28;20021;-85
2022/06/17 06:45:44;;;;;;;2.78;0.75;;;;;;;;;;5019545;28;20037;-82
2022/06/17 06:48:11;;;;;;;3.67;1.20;;;;;;;;;;5018718;28;20101;-80
2022/06/17 06:50:38;;;;;;;3.30;0.63;;;;;;;;;;5002262;28;20036;-83
2022/06/17 06:53:05;;;;;;;0.55;0.50;;;;;;;;;;5018362;28;20033;-84
2022/06/17 06:55:34;;;;;;;1.33;0.60;;;;;;;;;;5036839;28;20025;-83
2022/06/17 06:58:02;;;;;;;3.17;0.75;;;;;;;;;;5036605;28;20482;-84
2022/06/17 07:00:34;;;;;;;1.13;0.90;;;;;;;;;;5018723;28;20025;-82
2022/06/17 07:02:59;;;;;;;0.85;0.50;;;;;;;;;;5016365;28;20026;-85
2022/06/17 07:05:26;;;;;;;1.50;0.60;;;;;;;;;;4996087;28;20412;-84
2022/06/17 07:07:51;;;;;;;2.38;1.42;;;;;;;;;;5027249;28;20036;-85
2022/06/17 07:10:22;;;;;;;0.73;0.40;;;;;;;;;;5006408;28;20029;-83
2022/06/17 07:12:54;;;;;;;0.70;0.70;;;;;;;;;;5016719;28;20024;-84
2022/06/17 07:15:21;;;;;;;2.75;0.80;;;;;;;;;;5008029;28;20124;-89
2022/06/17 07:17:55;;;;;;;2.55;0.80;;;;;;;;;;5004786;28;20131;-85
2022/06/17 07:20:21;;;;;;;1.25;0.55;;;;;;;;;;5019768;28;20028;-85
2022/06/17 07:22:48;;;;;;;1.77;0.60;;;;;;;;;;5018541;28;20025;-83
2022/06/17 07:25:13;;;;;;;1.35;0.60;;;;;;;;;;5036062;28;20025;-80
2022/06/17 07:27:39;;;;;;;3.73;0.70;;;;;;;;;;5035496;28;20389;-80
2022/06/17 07:30:07;;;;;;;1.00;0.80;;;;;;;;;;5017505;28;20480;-79
2022/06/17 07:32:32;;;;;;;1.85;0.95;;;;;;;;;;5001009;28;20076;-80
2022/06/17 07:34:57;;;;;;;2.97;0.70;;;;;;;;;;5035092;28;20056;-84
2022/06/17 07:40:08;;;;;;;2.38;0.90;;;;;;;;;;5044904;28;20032;-79
2022/06/17 07:42:40;;;;;;;1.58;0.50;;;;;;;;;;5023074;28;20394;-83
2022/06/17 07:45:08;;;;;;;2.40;0.60;;;;;;;;;;5035905;28;20087;-85
2022/06/17 07:47:36;;;;;;;1.90;0.80;;;;;;;;;;5021376;28;20612;-83
2022/06/17 07:50:05;;;;;;;1.10;0.65;;;;;;;;;;5021204;28;20025;-83
2022/06/17 07:52:32;;;;;;;3.60;0.57;;;;;;;;;;5003532;28;20064;-84
2022/06/17 07:54:58;;;;;;;1.75;0.70;;;;;;;;;;5032502;28;20103;-81
2022/06/17 07:57:24;;;;;;;1.67;0.88;;;;;;;;;;5038717;28;20029;-82
2022/06/17 07:59:51;;;;;;;2.15;0.70;;;;;;;;;;5034778;28;20037;-82
2022/06/17 08:02:17;;;;;;;1.92;0.77;;;;;;;;;;5017498;28;20034;-80
2022/06/17 08:04:42;;;;;;;3.22;0.60;;;;;;;;;;5035088;28;20026;-75
2022/06/17 08:07:09;;;;;;;1.17;0.60;;;;;;;;;;5053780;28;20032;-73
2022/06/17 08:09:34;;;;;;;2.55;0.85;;;;;;;;;;5035968;28;20474;-75
2022/06/17 08:11:59;;;;;;;0.83;0.70;;;;;;;;;;5051337;28;20316;-74
2022/06/17 08:14:25;;;;;;;2.88;0.70;;;;;;;;;;5052302;28;20310;-72
2022/06/17 08:16:50;;;;;;;2.03;0.80;;;;;;;;;;5054437;28;20017;-73
2022/06/17 08:19:16;;;;;;;1.33;0.63;;;;;;;;;;5054155;28;20044;-72
2022/06/17 08:21:41;;;;;;;1.38;0.80;;;;;;;;;;5054182;28;20032;-73
2022/06/17 08:24:07;;;;;;;1.42;0.50;;;;;;;;;;5053027;28;20021;-73
2022/06/17 08:26:32;;;;;;;1.17;0.73;;;;;;;;;;5053816;28;20021;-74
2022/06/17 08:28:58;;;;;;;1.60;0.87;;;;;;;;;;5053586;28;20033;-74
2022/06/17 08:31:24;;;;;;;4.60;0.80;;;;;;;;;;5054747;28;20325;-74
2022/06/17 08:33:49;;;;;;;1.40;0.80;;;;;;;;;;5054249;28;20108;-74
2022/06/17 08:36:16;;;;;;;1.00;0.67;;;;;;;;;;5054016;28;20111;-73
2022/06/17 08:38:44;;;;;;;2.75;1.00;;;;;;;;;;5054178;28;20279;-73
2022/06/17 08:41:09;;;;;;;2.45;0.70;;;;;;;;;;5036415;28;20360;-73
2022/06/17 08:43:37;;;;;;;2.53;0.60;;;;;;;;;;5048545;28;20079;-72
2022/06/17 08:46:12;;;;;;;2.63;0.70;;;;;;;;;;5034680;28;20034;-72
2022/06/17 08:48:56;;;;;;;3.60;0.80;;;;;;;;;;5017053;28;20108;-72
2022/06/17 08:51:31;;;;;;;1.08;0.75;;;;;;;;;;5034072;28;20113;-72
2022/06/17 08:54:04;;;;;;;2.45;0.77;;;;;;;;;;5033843;28;20463;-73
2022/06/17 08:56:30;;;;;;;3.97;1.00;;;;;;;;;;5034488;28;20096;-74
2022/06/17 08:59:15;;;;;;;2.63;0.60;;;;;;;;;;5033815;28;20147;-73
2022/06/17 09:01:42;;;;;;;13.63;2.08;;;;;;;;;;5016496;28;20417;-72
2022/06/17 09:04:25;;;;;;;1.42;0.75;;;;;;;;;;5033952;28;20454;-73
2022/06/17 09:07:13;;;;;;;3.25;0.85;;;;;;;;;;5033968;28;20033;-74
2022/06/17 09:09:44;;;;;;;0.73;0.60;;;;;;;;;;5033867;28;20024;-72
2022/06/17 09:12:11;;;;;;;2.15;0.82;;;;;;;;;;5015874;28;20045;-73
2022/06/17 09:14:39;;;;;;;1.65;0.70;;;;;;;;;;5033656;28;20026;-75
2022/06/17 09:17:19;;;;;;;1.25;0.80;;;;;;;;;;5033628;28;20120;-75
2022/06/17 09:19:46;;;;;;;1.05;0.95;;;;;;;;;;5016588;28;20476;-74
2022/06/17 09:22:20;;;;;;;0.90;0.80;;;;;;;;;;5034628;28;20030;-73
2022/06/17 09:24:45;;;;;;;2.13;0.65;;;;;;;;;;5035334;28;20032;-73
2022/06/17 09:27:23;;;;;;;2.50;0.63;;;;;;;;;;5034945;28;20017;-74
2022/06/17 09:29:55;;;;;;;1.70;0.80;;;;;;;;;;5033938;28;20021;-75
2022/06/17 09:32:31;;;;;;;2.60;0.80;;;;;;;;;;5032836;28;20097;-73
2022/06/17 09:35:08;;;;;;;5.10;0.90;;;;;;;;;;5033364;28;20021;-74
2022/06/17 09:37:36;;;;;;;2.92;1.10;;;;;;;;;;5033276;28;20505;-74
2022/06/17 09:40:08;;;;;;;2.47;0.80;;;;;;;;;;5033626;28;20021;-75
2022/06/17 09:42:33;;;;;;;2.22;0.93;;;;;;;;;;5033374;28;20032;-74
2022/06/17 09:45:08;;;;;;;2.17;0.77;;;;;;;;;;5049974;28;20131;-73
2022/06/17 09:47:36;;;;;;;2.35;1.35;;;;;;;;;;5053380;28;20125;-73
2022/06/17 09:50:11;;;;;;;2.60;1.02;;;;;;;;;;5053462;28;20021;-74
2022/06/17 09:52:40;;;;;;;0.80;0.80;;;;;;;;;;5052991;28;20028;-73
2022/06/17 09:55:09;;;;;;;3.53;1.00;;;;;;;;;;5053266;28;20363;-75
2022/06/17 09:57:43;;;;;;;1.38;0.88;;;;;;;;;;5035374;28;20039;-74
2022/06/17 10:00:11;;;;;;;0.93;0.70;;;;;;;;;;5053079;28;20029;-75
2022/06/17 10:02:42;;;;;;;0.77;0.68;;;;;;;;;;5053047;28;20036;-75
2022/06/17 10:05:23;;;;;;;3.33;1.00;;;;;;;;;;5053368;28;20079;-74
2022/06/17 10:07:53;;;;;;;3.72;2.30;;;;;;;;;;5053081;28;20032;-73
2022/06/17 10:10:19;;;;;;;2.00;0.93;;;;;;;;;;5053191;28;20061;-74
2022/06/17 10:12:53;;;;;;;2.03;0.93;;;;;;;;;;5052744;28;20037;-74
2022/06/17 10:15:24;;;;;;;2.78;0.85;;;;;;;;;;5052916;28;20043;-74
2022/06/17 10:21:01;;;;;;;0.85;0.70;;;;;;;;;;5052870;28;19911;-74
2022/06/17 10:23:44;;;;;;;4.18;1.05;;;;;;;;;;5052754;28;20378;-74
2022/06/17 10:26:09;;;;;;;1.15;0.60;;;;;;;;;;5052677;28;20021;-74
2022/06/17 10:28:52;;;;;;;1.03;0.83;;;;;;;;;;5054058;28;20032;-74
2022/06/17 10:31:20;;;;;;;1.95;0.68;;;;;;;;;;5057274;28;20117;-74
2022/06/17 10:33:45;;;;;;;1.73;0.93;;;;;;;;;;5055667;28;20067;-73
2022/06/17 10:36:10;;;;;;;2.67;0.95;;;;;;;;;;5055914;28;20025;-73
2022/06/17 10:38:37;;;;;;;2.97;1.03;;;;;;;;;;5035190;28;20019;-73
2022/06/17 10:41:03;;;;;;;0.90;0.90;;;;;;;;;;5034684;28;20278;-73
2022/06/17 10:43:31;;;;;;;2.80;1.17;;;;;;;;;;5055103;28;20037;-72
2022/06/17 10:45:56;;;;;;;3.00;0.80;;;;;;;;;;5056416;28;20025;-74
2022/06/17 10:48:38;;;;;;;0.93;0.75;;;;;;;;;;5056548;28;20087;-74
2022/06/17 10:51:04;;;;;;;3.38;0.80;;;;;;;;;;5056446;28;20028;-74
2022/06/17 10:53:51;;;;;;;1.25;0.88;;;;;;;;;;5056181;28;20025;-74
2022/06/17 10:56:25;;;;;;;2.72;1.05;;;;;;;;;;5056149;28;20013;-74
2022/06/17 10:59:01;;;;;;;2.00;1.05;;;;;;;;;;5056209;28;20029;-73
2022/06/17 11:01:46;;;;;;;1.50;1.00;;;;;;;;;;5056261;28;20107;-73
2022/06/17 11:04:31;;;;;;;1.00;0.75;;;;;;;;;;5055785;28;20025;-74
2022/06/17 11:07:00;;;;;;;0.95;0.85;;;;;;;;;;5056060;28;20033;-74
2022/06/17 11:09:28;;;;;;;1.13;0.90;;;;;;;;;;5056056;28;20055;-74
2022/06/17 11:12:10;;;;;;;4.75;1.40;;;;;;;;;;5055986;28;20091;-73
2022/06/17 11:14:38;;;;;;;2.95;1.60;;;;;;;;;;5037909;28;20020;-74
2022/06/17 11:17:11;;;;;;;4.13;1.20;;;;;;;;;;5055831;28;20344;-75
2022/06/17 11:19:37;;;;;;;1.02;0.98;;;;;;;;;;5055619;28;20023;-75
2022/06/17 11:22:03;;;;;;;3.17;1.20;;;;;;;;;;5055743;28;20068;-74
2022/06/17 11:24:33;;;;;;;2.42;1.08;;;;;;;;;;5056077;28;20021;-74
2022/06/17 11:27:28;;;;;;;1.70;1.10;;;;;;;;;;5055765;28;20036;-75
2022/06/17 11:29:54;;;;;;;4.28;1.17;;;;;;;;;;5038190;28;20064;-74
2022/06/17 11:32:19;;;;;;;3.17;1.33;;;;;;;;;;5037652;28;20025;-74
2022/06/17 11:34:53;;;;;;;1.63;0.70;;;;;;;;;;5055735;28;20021;-76
2022/06/17 11:37:29;;;;;;;0.80;0.77;;;;;;;;;;5055289;28;20017;-73
2022/06/17 11:40:12;;;;;;;1.52;1.25;;;;;;;;;;5055145;28;20098;-75
2022/06/17 11:42:44;;;;;;;2.38;1.33;;;;;;;;;;5055116;28;20029;-73
2022/06/17 11:45:11;;;;;;;3.28;1.02;;;;;;;;;;5055081;28;20052;-73
2022/06/17 11:47:36;;;;;;;2.53;0.90;;;;;;;;;;5055379;28;20363;-74
2022/06/17 11:50:16;;;;;;;2.17;0.80;;;;;;;;;;5055177;28;20477;-73
2022/06/17 11:52:42;;;;;;;1.85;1.00;;;;;;;;;;5037484;28;20060;-74
2022/06/17 11:55:09;;;;;;;3.03;1.35;;;;;;;;;;5054351;28;20378;-72
2022/06/17 11:57:36;;;;;;;2.13;0.80;;;;;;;;;;5054906;28;20021;-73
2022/06/17 12:00:04;;;;;;;1.38;1.17;;;;;;;;;;5055113;28;20017;-74
2022/06/17 12:02:30;;;;;;;1.60;0.80;;;;;;;;;;5055119;28;20029;-73
2022/06/17 12:05:05;;;;;;;1.45;1.08;;;;;;;;;;5054931;28;20021;-74
2022/06/17 12:07:52;;;;;;;5.20;1.15;;;;;;;;;;5054973;28;20056;-73
2022/06/17 12:10:28;;;;;;;2.33;1.48;;;;;;;;;;5054529;28;20025;-74
2022/06/17 12:12:56;;;;;;;2.85;0.85;;;;;;;;;;5054811;28;20036;-74
2022/06/17 12:15:34;;;;;;;0.95;0.95;;;;;;;;;;5054344;28;20450;-73
2022/06/17 12:18:00;;;;;;;0.80;0.80;;;;;;;;;;5054575;28;20049;-74
2022/06/17 12:20:34;;;;;;;2.75;1.50;;;;;;;;;;5054157;28;20075;-75
2022/06/17 12:23:06;;;;;;;2.78;0.93;;;;;;;;;;5054383;28;20075;-74
2022/06/17 12:25:37;;;;;;;3.80;1.15;;;;;;;;;;5054422;28;20024;-74
2022/06/17 12:28:07;;;;;;;11.27;1.75;;;;;;;;;;5054572;28;20025;-75
2022/06/17 12:30:38;;;;;;;0.75;0.75;;;;;;;;;;5053886;28;20416;-74
2022/06/17 12:33:06;;;;;;;7.20;5.45;;;;;;;;;;5054101;28;20021;-74
2022/06/17 12:35:54;;;;;;;1.25;0.57;;;;;;;;;;5054549;28;20032;-75
2022/06/17 12:38:25;;;;;;;4.53;1.33;;;;;;;;;;5043254;28;20076;-76
2022/06/17 12:40:56;;;;;;;1.08;1.08;;;;;;;;;;5055250;28;20028;-75
2022/06/17 12:43:44;;;;;;;5.30;0.87;;;;;;;;;;5053502;28;20394;-75
2022/06/17 12:46:32;;;;;;;2.25;0.65;;;;;;;;;;5043195;28;20060;-75
2022/06/17 12:54:50;;;;;;;3.75;1.10;;;;;;;;;;5054154;28;20086;-75
2022/06/17 12:57:19;;;;;;;1.65;0.88;;;;;;;;;;5036407;28;20033;-75
2022/06/17 13:00:03;;;;;;;1.98;0.80;;;;;;;;;;5053878;28;20071;-75
2022/06/17 13:02:34;;;;;;;1.27;0.82;;;;;;;;;;5053847;28;20098;-75
2022/06/17 13:05:12;;;;;;;2.75;0.75;;;;;;;;;;5053715;28;20099;-75
2022/06/17 13:07:56;;;;;;;6.05;0.82;;;;;;;;;;5053189;28;20025;-75
2022/06/17 13:10:44;;;;;;;2.55;0.95;;;;;;;;;;5053850;28;20078;-75
2022/06/17 13:13:29;;;;;;;1.27;1.10;;;;;;;;;;5042710;28;20036;-74
2022/06/17 13:16:00;;;;;;;0.70;0.70;;;;;;;;;;5053770;28;20024;-75
2022/06/17 13:18:25;;;;;;;;;;;;;;;;;;5036233;28;20028;-74
2022/06/17 13:20:59;;;;;;;1.08;0.70;;;;;;;;;;5053785;28;19959;-74
2022/06/17 13:24:03;;;;;;;1.15;0.82;;;;;;;;;;5053863;28;20028;-75
2022/06/17 13:26:28;;;;;;;3.20;0.88;;;;;;;;;;4972809;28;20034;-75
2022/06/17 13:29:00;;;;;;;0.73;0.73;;;;;;;;;;4972568;28;20027;-74
2022/06/17 13:31:29;;;;;;;2.47;1.63;;;;;;;;;;5013201;28;20036;-74
2022/06/17 13:33:56;;;;;;;0.93;0.75;;;;;;;;;;5053418;28;20107;-75
2022/06/17 13:36:24;;;;;;;1.05;1.00;;;;;;;;;;5053290;28;20017;-74
2022/06/17 13:39:08;;;;;;;3.95;1.02;;;;;;;;;;5053277;28;20071;-75
2022/06/17 13:41:40;;;;;;;2.25;0.95;;;;;;;;;;5053383;28;20033;-75
2022/06/17 13:44:18;;;;;;;1.70;1.15;;;;;;;;;;5035251;28;20156;-75
2022/06/17 13:47:02;;;;;;;3.85;1.00;;;;;;;;;;5053382;28;20029;-75
2022/06/17 13:49:47;;;;;;;1.40;0.90;;;;;;;;;;5053174;28;20466;-75
2022/06/17 13:52:28;;;;;;;1.48;0.90;;;;;;;;;;5052340;28;20037;-75
2022/06/17 13:54:56;;;;;;;1.83;0.83;;;;;;;;;;5053349;28;20026;-75
2022/06/17 13:57:21;;;;;;;0.93;0.90;;;;;;;;;;5053225;28;20025;-74
2022/06/17 13:59:54;;;;;;;1.60;0.97;;;;;;;;;;5035182;28;20025;-74
2022/06/17 14:02:25;;;;;;;0.88;0.88;;;;;;;;;;5053074;28;20025;-74
2022/06/17 14:05:03;;;;;;;3.13;0.90;;;;;;;;;;5035141;28;20055;-74
2022/06/17 14:07:47;;;;;;;1.38;1.00;;;;;;;;;;5053395;28;20029;-74
2022/06/17 14:10:27;;;;;;;1.27;0.65;;;;;;;;;;5053400;28;20056;-73
2022/06/17 14:12:53;;;;;;;3.38;0.77;;;;;;;;;;5035024;28;20359;-74
2022/06/17 14:15:22;;;;;;;0.85;0.80;;;;;;;;;;5035229;28;20082;-75
2022/06/17 14:17:50;;;;;;;0.95;0.85;;;;;;;;;;5055189;28;20526;-73
2022/06/17 14:20:33;;;;;;;1.83;0.85;;;;;;;;;;5057149;28;20031;-75
2022/06/17 14:23:06;;;;;;;5.15;1.05;;;;;;;;;;5056751;28;20033;-74
2022/06/17 14:25:48;;;;;;;3.53;1.13;;;;;;;;;;5038712;28;20082;-74
2022/06/17 14:28:32;;;;;;;2.95;1.15;;;;;;;;;;5056696;28;20025;-75
2022/06/17 14:31:08;;;;;;;1.35;0.75;;;;;;;;;;5056976;28;20047;-74
2022/06/17 14:33:58;;;;;;;1.77;1.02;;;;;;;;;;5056327;28;20505;-75
2022/06/17 14:36:42;;;;;;;6.22;0.93;;;;;;;;;;5056478;28;20062;-75
2022/06/17 14:39:11;;;;;;;1.98;0.88;;;;;;;;;;5056796;28;20025;-73
2022/06/17 14:44:34;;;;;;;1.38;0.80;;;;;;;;;;5056322;28;20445;-73
2022/06/17 14:47:17;;;;;;;0.70;0.70;;;;;;;;;;5038428;28;20359;-74
2022/06/17 14:49:42;;;;;;;4.03;1.55;;;;;;;;;;5056557;28;20040;-73
2022/06/17 14:52:20;;;;;;;1.30;1.07;;;;;;;;;;5038432;28;20025;-74
2022/06/17 14:54:55;;;;;;;2.05;1.33;;;;;;;;;;5056452;28;20272;-74
2022/06/17 14:57:23;;;;;;;1.58;1.20;;;;;;;;;;5056360;28;20013;-73
2022/06/17 14:59:49;;;;;;;3.25;1.38;;;;;;;;;;5056208;28;20115;-74
2022/06/17 15:02:19;;;;;;;2.47;1.20;;;;;;;;;;5056309;28;20493;-75
2022/06/17 15:04:46;;;;;;;1.80;1.17;;;;;;;;;;5056012;28;20361;-75
2022/06/17 15:07:27;;;;;;;2.42;1.02;;;;;;;;;;5056228;28;20432;-75
2022/06/17 15:09:58;;;;;;;2.88;1.33;;;;;;;;;;5056652;28;20032;-75
2022/06/17 15:12:24;;;;;;;;;;;;;;;;;;5056921;28;20057;-75
2022/06/17 15:15:00;;;;;;;2.03;0.82;;;;;;;;;;5055935;28;19943;-74
2022/06/17 15:17:31;;;;;;;3.05;1.10;;;;;;;;;;5055918;28;20023;-74
2022/06/17 15:19:56;;;;;;;;;;;;;;;;;;5056232;28;20469;-73
2022/06/17 15:22:30;;;;;;;1.00;0.90;;;;;;;;;;5056106;28;19905;-74
2022/06/17 15:25:15;;;;;;;3.55;0.95;;;;;;;;;;5055763;28;20016;-75